createdAt,value
2023-11-24T00:00:15.004Z,53.8
2023-11-24T00:01:16.049Z,53.7
2023-11-24T00:02:17.055Z,53.4
2023-11-24T00:03:18.023Z,52.9
2023-11-24T00:04:19.019Z,53.2
2023-11-24T00:05:19.950Z,52.9
2023-11-24T00:06:21.146Z,52.9
2023-11-24T00:07:22.054Z,52.6
2023-11-24T00:08:22.965Z,52.4
2023-11-24T00:09:24.066Z,52.3
2023-11-24T00:10:25.010Z,52.5
2023-11-24T00:11:27.051Z,52.6
2023-11-24T00:12:28.006Z,52.7
2023-11-24T00:13:28.967Z,52.9
2023-11-24T00:14:29.989Z,53.1
2023-11-24T00:15:31.039Z,53.1
2023-11-24T00:16:32.055Z,52.9
2023-11-24T00:17:33.044Z,52.4
2023-11-24T00:18:34.020Z,52.1
2023-11-24T00:19:35.026Z,51.7
2023-11-24T00:20:36.047Z,51.6
2023-11-24T00:21:37.014Z,51.9
2023-11-24T00:22:37.973Z,51.3
2023-11-24T00:23:38.972Z,51.3
2023-11-24T00:24:40.005Z,51.2
2023-11-24T00:25:40.985Z,51.2
2023-11-24T00:26:42.008Z,51.2
2023-11-24T00:27:45.777Z,51.4
2023-11-24T00:28:47.011Z,51
2023-11-24T00:29:47.975Z,50.7
2023-11-24T00:30:49.008Z,50.6
2023-11-24T00:31:50.081Z,50.5
2023-11-24T00:32:51.035Z,50.7
2023-11-24T00:33:53.079Z,50.8
2023-11-24T00:34:54.019Z,50.5
2023-11-24T00:35:54.988Z,50.7
2023-11-24T00:36:56.264Z,50.2
2023-11-24T00:37:56.966Z,50.6
2023-11-24T00:38:58.010Z,50.7
2023-11-24T00:39:59.009Z,50.6
2023-11-24T00:40:59.984Z,50.4
2023-11-24T00:42:01.049Z,49.9
2023-11-24T00:43:02.026Z,49.5
2023-11-24T00:44:03.012Z,48.8
2023-11-24T00:45:04.008Z,48.7
2023-11-24T00:46:04.995Z,48.8
2023-11-24T00:47:07.025Z,48.7
2023-11-24T00:48:08.112Z,48.4
2023-11-24T00:49:08.973Z,48.4
2023-11-24T00:50:10.043Z,47.5
2023-11-24T00:51:11.502Z,47
2023-11-24T00:52:12.055Z,46.9
2023-11-24T00:53:13.022Z,47.2
2023-11-24T00:54:13.992Z,47.1
2023-11-24T00:55:17.053Z,47
2023-11-24T00:56:16.022Z,47.1
2023-11-24T00:57:16.987Z,46.7
2023-11-24T00:58:18.026Z,46.6
2023-11-24T00:59:18.992Z,46.8
2023-11-24T01:00:20.074Z,47
2023-11-24T01:01:21.010Z,46.9
2023-11-24T01:02:22.014Z,46.4
2023-11-24T01:03:23.019Z,45.8
2023-11-24T01:04:24.138Z,45.9
2023-11-24T01:05:25.052Z,46.1
2023-11-24T01:06:26.047Z,46.2
2023-11-24T01:07:27.022Z,46.5
2023-11-24T01:08:28.260Z,46.7
2023-11-24T01:10:30.024Z,46.1
2023-11-24T01:11:33.745Z,46.5
2023-11-24T01:12:32.086Z,46.4
2023-11-24T01:14:34.042Z,46.3
2023-11-24T01:15:34.997Z,46.5
2023-11-24T01:16:36.008Z,46.8
2023-11-24T01:17:37.181Z,47
2023-11-24T01:18:38.008Z,46.9
2023-11-24T01:19:39.019Z,46.6
2023-11-24T01:20:40.036Z,46.8
2023-11-24T01:21:41.013Z,47.1
2023-11-24T01:22:42.037Z,47.4
2023-11-24T01:24:44.168Z,47.3
2023-11-24T01:25:45.056Z,47.3
2023-11-24T01:26:46.244Z,47.9
2023-11-24T01:27:47.115Z,47.7
2023-11-24T01:28:48.021Z,47.7
2023-11-24T01:29:48.987Z,47.1
2023-11-24T01:30:50.026Z,47
2023-11-24T01:31:51.019Z,47.1
2023-11-24T01:32:52.037Z,47.8
2023-11-24T01:33:53.041Z,47.3
2023-11-24T01:34:54.007Z,47.9
2023-11-24T01:35:55.085Z,47.7
2023-11-24T01:36:56.065Z,47.2
2023-11-24T01:37:57.010Z,47.2
2023-11-24T01:38:58.061Z,46.9
2023-11-24T01:40:01.982Z,47.5
2023-11-24T01:41:03.035Z,47.5
2023-11-24T01:42:04.081Z,48
2023-11-24T01:43:05.015Z,47.9
2023-11-24T01:44:06.063Z,47.7
2023-11-24T01:45:06.982Z,47.4
2023-11-24T01:46:08.067Z,47.1
2023-11-24T01:47:09.033Z,47.4
2023-11-24T01:48:10.006Z,47.8
2023-11-24T01:49:11.236Z,47.9
2023-11-24T01:50:12.008Z,47.8
2023-11-24T01:51:13.028Z,47.3
2023-11-24T01:53:15.046Z,47.2
2023-11-24T01:54:16.045Z,47.2
2023-11-24T01:55:17.029Z,47.2
2023-11-24T01:56:18.024Z,47.2
2023-11-24T01:57:19.031Z,47.3
2023-11-24T01:58:20.029Z,47.3
2023-11-24T01:59:21.022Z,47.2
2023-11-24T02:00:22.110Z,47.5
2023-11-24T02:01:23.031Z,47.4
2023-11-24T02:04:26.046Z,48
2023-11-24T02:05:27.056Z,48.3
2023-11-24T02:06:28.075Z,48.2
2023-11-24T02:07:29.019Z,48.3
2023-11-24T02:08:30.006Z,48.3
2023-11-24T02:09:31.062Z,48
2023-11-24T02:10:32.042Z,47.7
2023-11-24T02:11:33.044Z,47.8
2023-11-24T02:12:35.081Z,47.8
2023-11-24T02:13:36.020Z,48
2023-11-24T02:14:37.028Z,48.2
2023-11-24T02:15:38.084Z,48.1
2023-11-24T02:16:39.166Z,48.3
2023-11-24T02:17:40.100Z,48.4
2023-11-24T02:18:41.067Z,48.3
2023-11-24T02:19:42.104Z,48.4
2023-11-24T02:20:45.621Z,48.4
2023-11-24T02:21:46.046Z,48.4
2023-11-24T02:22:47.045Z,48.4
2023-11-24T02:23:48.100Z,48.6
2023-11-24T02:24:49.084Z,48.8
2023-11-24T02:25:50.021Z,48.5
2023-11-24T02:26:51.120Z,48.5
2023-11-24T02:27:52.034Z,48.5
2023-11-24T02:28:55.839Z,48.4
2023-11-24T02:29:57.286Z,48.5
2023-11-24T02:30:58.166Z,48.1
2023-11-24T02:31:59.040Z,47.9
2023-11-24T02:33:00.099Z,47.7
2023-11-24T02:34:01.111Z,47.5
2023-11-24T02:36:03.041Z,47.4
2023-11-24T02:37:04.206Z,47.2
2023-11-24T02:38:07.344Z,46.7
2023-11-24T02:40:09.057Z,47.2
2023-11-24T02:41:10.229Z,47.2
2023-11-24T02:42:12.036Z,47.2
2023-11-24T02:43:13.026Z,47.4
2023-11-24T02:44:14.102Z,47.5
2023-11-24T02:45:15.028Z,47.8
2023-11-24T02:46:16.064Z,47.8
2023-11-24T02:47:17.057Z,47.6
2023-11-24T02:48:18.088Z,47.5
2023-11-24T02:49:19.074Z,47.5
2023-11-24T02:50:20.047Z,47.8
2023-11-24T02:51:21.030Z,48.2
2023-11-24T02:52:22.293Z,48.5
2023-11-24T02:53:23.076Z,48.8
2023-11-24T02:54:24.360Z,49.1
2023-11-24T02:55:25.103Z,49.5
2023-11-24T02:56:26.133Z,49.9
2023-11-24T02:57:27.113Z,50.3
2023-11-24T02:58:28.047Z,50.7
2023-11-24T02:59:29.052Z,51.2
2023-11-24T03:00:30.164Z,51
2023-11-24T03:01:31.235Z,51
2023-11-24T03:02:32.129Z,51.8
2023-11-24T03:03:33.053Z,52
2023-11-24T03:04:34.042Z,52
2023-11-24T03:05:35.090Z,52.1
2023-11-24T03:06:36.088Z,52.5
2023-11-24T03:07:39.970Z,52.6
2023-11-24T03:08:41.080Z,52.7
2023-11-24T03:09:42.062Z,52.8
2023-11-24T03:10:43.079Z,52.7
2023-11-24T03:11:44.135Z,52.6
2023-11-24T03:12:45.224Z,52.2
2023-11-24T03:13:49.012Z,52.1
2023-11-24T03:14:47.068Z,51.9
2023-11-24T03:15:48.123Z,51.9
2023-11-24T03:16:49.084Z,52.1
2023-11-24T03:17:50.076Z,52.4
2023-11-24T03:18:51.074Z,52.4
2023-11-24T03:19:52.053Z,52.3
2023-11-24T03:20:53.056Z,52.4
2023-11-24T03:21:54.106Z,51.7
2023-11-24T03:22:56.801Z,52.2
2023-11-24T03:23:56.057Z,52.3
2023-11-24T03:24:57.095Z,52.3
2023-11-24T03:25:58.516Z,52.1
2023-11-24T03:26:59.112Z,51.8
2023-11-24T03:28:00.372Z,51.7
2023-11-24T03:29:01.069Z,51.9
2023-11-24T03:30:02.202Z,52.1
2023-11-24T03:31:03.151Z,52.2
2023-11-24T03:32:04.162Z,52.4
2023-11-24T03:33:05.074Z,52.3
2023-11-24T03:34:06.128Z,52.1
2023-11-24T03:35:07.114Z,52.1
2023-11-24T03:36:08.054Z,52.2
2023-11-24T03:37:09.078Z,52.3
2023-11-24T03:38:10.112Z,52.2
2023-11-24T03:39:11.053Z,52.2
2023-11-24T03:40:12.105Z,52.4
2023-11-24T03:41:13.122Z,52.4
2023-11-24T03:42:14.084Z,52.3
2023-11-24T03:43:15.058Z,52.2
2023-11-24T03:44:16.138Z,52.1
2023-11-24T03:45:17.078Z,52.3
2023-11-24T03:46:18.237Z,52.5
2023-11-24T03:47:19.066Z,52.6
2023-11-24T03:48:20.064Z,52.2
2023-11-24T03:49:21.074Z,52.4
2023-11-24T03:50:22.089Z,52.6
2023-11-24T03:51:25.448Z,52.6
2023-11-24T03:52:26.267Z,52.4
2023-11-24T03:53:27.084Z,52.2
2023-11-24T03:54:28.096Z,52.3
2023-11-24T03:55:29.128Z,52.1
2023-11-24T03:56:30.069Z,52.1
2023-11-24T03:57:31.145Z,52
2023-11-24T03:58:32.069Z,51.9
2023-11-24T03:59:33.086Z,51.9
2023-11-24T04:00:34.193Z,51.8
2023-11-24T04:01:35.335Z,51.7
2023-11-24T04:02:36.118Z,51.7
2023-11-24T04:03:39.792Z,51.8
2023-11-24T04:04:41.074Z,51.9
2023-11-24T04:05:42.160Z,51.9
2023-11-24T04:06:43.119Z,51.6
2023-11-24T04:07:44.153Z,51.5
2023-11-24T04:08:45.106Z,51.4
2023-11-24T04:09:46.157Z,51.2
2023-11-24T04:10:49.100Z,51.1
2023-11-24T04:11:51.318Z,50.8
2023-11-24T04:12:54.227Z,50.6
2023-11-24T04:13:57.321Z,50.6
2023-11-24T04:14:59.083Z,50.7
2023-11-24T04:16:01.245Z,50.8
2023-11-24T04:17:03.124Z,51
2023-11-24T04:18:04.270Z,51
2023-11-24T04:19:05.135Z,50.9
2023-11-24T04:20:09.151Z,50.7
2023-11-24T04:21:10.085Z,50.8
2023-11-24T04:22:11.099Z,50.8
2023-11-24T04:23:12.075Z,50.8
2023-11-24T04:24:13.215Z,50.9
2023-11-24T04:25:14.158Z,50.9
2023-11-24T04:26:15.131Z,51
2023-11-24T04:27:16.107Z,51.2
2023-11-24T04:28:17.100Z,51.3
2023-11-24T04:29:19.124Z,51.2
2023-11-24T04:30:21.104Z,51.2
2023-11-24T04:31:25.780Z,51
2023-11-24T04:32:28.356Z,51.1
2023-11-24T04:33:32.581Z,51.2
2023-11-24T04:34:34.220Z,51.1
2023-11-24T04:35:36.206Z,51.2
2023-11-24T04:36:38.133Z,51.1
2023-11-24T04:37:40.099Z,51.1
2023-11-24T04:38:42.137Z,51
2023-11-24T04:39:44.286Z,51.1
2023-11-24T04:40:46.096Z,51
2023-11-24T04:41:48.642Z,50.8
2023-11-24T04:42:50.103Z,50.6
2023-11-24T04:43:52.102Z,50.7
2023-11-24T04:44:54.311Z,50.8
2023-11-24T04:45:56.286Z,50.8
2023-11-24T04:46:58.198Z,50.8
2023-11-24T04:48:00.211Z,50.9
2023-11-24T04:49:03.373Z,51
2023-11-24T04:50:04.248Z,51.2
2023-11-24T04:51:05.105Z,50.9
2023-11-24T04:52:06.083Z,50.8
2023-11-24T04:53:07.123Z,50.8
2023-11-24T04:54:08.121Z,50.6
2023-11-24T04:55:13.127Z,50.4
2023-11-24T04:56:15.133Z,50.2
2023-11-24T04:57:16.140Z,50.2
2023-11-24T04:58:17.308Z,50.1
2023-11-24T04:59:19.115Z,50
2023-11-24T05:00:21.149Z,49.9
2023-11-24T05:01:23.227Z,49.8
2023-11-24T05:02:25.238Z,49.7
2023-11-24T05:03:27.139Z,49.6
2023-11-24T05:04:29.426Z,49.4
2023-11-24T05:05:31.153Z,49.5
2023-11-24T05:06:33.164Z,49.7
2023-11-24T05:08:38.145Z,49.8
2023-11-24T05:09:40.323Z,49.6
2023-11-24T05:10:42.157Z,49.4
2023-11-24T05:11:44.170Z,49.5
2023-11-24T05:12:46.152Z,49.4
2023-11-24T05:13:48.089Z,49.4
2023-11-24T05:15:53.204Z,49.5
2023-11-24T05:16:55.149Z,49.5
2023-11-24T05:17:57.193Z,49.4
2023-11-24T05:18:59.202Z,49.3
2023-11-24T05:20:01.186Z,49.1
2023-11-24T05:21:04.350Z,49.2
2023-11-24T05:22:05.132Z,49
2023-11-24T05:23:06.129Z,48.8
2023-11-24T05:24:07.190Z,48.9
2023-11-24T05:25:08.203Z,48.9
2023-11-24T05:26:09.145Z,48.6
2023-11-24T05:27:10.108Z,48.8
2023-11-24T05:28:12.148Z,48.7
2023-11-24T05:29:16.046Z,48.4
2023-11-24T05:31:18.199Z,48.4
2023-11-24T05:32:20.142Z,48.3
2023-11-24T05:33:22.211Z,48.1
2023-11-24T05:34:24.427Z,48
2023-11-24T05:35:26.380Z,48
2023-11-24T05:36:28.218Z,47.5
2023-11-24T05:37:30.122Z,47.6
2023-11-24T05:38:32.145Z,47.6
2023-11-24T05:39:34.155Z,47.9
2023-11-24T05:40:36.123Z,48
2023-11-24T05:41:38.189Z,47.9
2023-11-24T05:42:40.178Z,47.2
2023-11-24T05:43:42.156Z,46.8
2023-11-24T05:44:44.173Z,46.5
2023-11-24T05:46:48.167Z,46.8
2023-11-24T05:47:50.211Z,46.7
2023-11-24T05:48:52.300Z,46.6
2023-11-24T05:49:54.135Z,47
2023-11-24T05:50:56.139Z,47
2023-11-24T05:51:59.199Z,47
2023-11-24T05:54:03.321Z,46.6
2023-11-24T05:55:04.565Z,46.7
2023-11-24T05:56:05.147Z,46
2023-11-24T05:57:06.158Z,46.6
2023-11-24T05:58:07.244Z,47
2023-11-24T05:59:08.118Z,46.6
2023-11-24T06:00:09.134Z,46.6
2023-11-24T06:01:11.234Z,46.1
2023-11-24T06:02:12.446Z,46.1
2023-11-24T06:03:14.130Z,46
2023-11-24T06:04:15.355Z,46.2
2023-11-24T06:05:17.653Z,46.3
2023-11-24T06:06:19.166Z,46.3
2023-11-24T06:07:21.143Z,46
2023-11-24T06:08:23.197Z,45.9
2023-11-24T06:09:25.156Z,46
2023-11-24T06:10:27.174Z,46
2023-11-24T06:11:29.137Z,45.9
2023-11-24T06:12:31.413Z,45.8
2023-11-24T06:13:33.148Z,45.8
2023-11-24T06:14:35.153Z,45.8
2023-11-24T06:15:37.273Z,45.8
2023-11-24T06:16:39.259Z,45.6
2023-11-24T06:18:43.528Z,46.6
2023-11-24T06:19:45.157Z,46.7
2023-11-24T06:20:47.159Z,46.7
2023-11-24T06:21:49.279Z,46.6
2023-11-24T06:22:52.227Z,46.5
2023-11-24T06:23:54.178Z,46.7
2023-11-24T06:25:58.170Z,46.4
2023-11-24T06:27:00.187Z,46.3
2023-11-24T06:28:02.319Z,46.3
2023-11-24T06:29:05.362Z,46.4
2023-11-24T06:30:06.163Z,46.2
2023-11-24T06:31:07.240Z,46
2023-11-24T06:32:08.162Z,45.9
2023-11-24T06:34:11.218Z,46.1
2023-11-24T06:35:13.236Z,45.9
2023-11-24T06:36:14.148Z,46
2023-11-24T06:37:16.203Z,46.1
2023-11-24T06:38:18.240Z,46.3
2023-11-24T06:39:23.146Z,46.5
2023-11-24T06:41:27.150Z,46.6
2023-11-24T06:42:29.192Z,46.5
2023-11-24T06:43:31.200Z,46.1
2023-11-24T06:44:33.183Z,45.9
2023-11-24T06:45:35.422Z,46
2023-11-24T06:46:37.201Z,45.9
2023-11-24T06:48:42.192Z,45.9
2023-11-24T06:49:45.249Z,45.9
2023-11-24T06:50:49.956Z,45.9
2023-11-24T06:51:52.221Z,46.1
2023-11-24T06:52:54.168Z,46.2
2023-11-24T06:54:57.234Z,46.3
2023-11-24T06:55:59.195Z,46.3
2023-11-24T06:57:01.217Z,46.5
2023-11-24T06:58:03.309Z,46.9
2023-11-24T06:59:05.198Z,47.1
2023-11-24T07:00:07.523Z,47.3
2023-11-24T07:01:08.284Z,47.5
2023-11-24T07:02:09.277Z,47.6
2023-11-24T07:03:10.283Z,47.6
2023-11-24T07:04:11.429Z,47.6
2023-11-24T07:05:12.147Z,47.7
2023-11-24T07:06:14.213Z,47.7
2023-11-24T07:07:15.178Z,47.6
2023-11-24T07:08:17.200Z,47.6
2023-11-24T07:09:19.224Z,47.7
2023-11-24T07:10:21.279Z,47.9
2023-11-24T07:11:23.219Z,47.9
2023-11-24T07:12:25.204Z,48
2023-11-24T07:13:27.242Z,48.1
2023-11-24T07:14:29.202Z,48
2023-11-24T07:15:31.263Z,47.9
2023-11-24T07:16:33.259Z,48.1
2023-11-24T07:17:35.222Z,48.3
2023-11-24T07:19:39.251Z,47.8
2023-11-24T07:20:41.160Z,47.9
2023-11-24T07:21:43.262Z,48
2023-11-24T07:22:45.252Z,48.2
2023-11-24T07:23:47.215Z,48.2
2023-11-24T07:24:49.212Z,48.2
2023-11-24T07:26:53.293Z,48.3
2023-11-24T07:27:55.256Z,48.4
2023-11-24T07:28:57.234Z,48.5
2023-11-24T07:29:59.251Z,48.6
2023-11-24T07:31:01.304Z,48.4
2023-11-24T07:32:03.284Z,48.3
2023-11-24T07:33:05.244Z,48
2023-11-24T07:34:07.611Z,48.6
2023-11-24T07:35:08.377Z,49.2
2023-11-24T07:36:09.236Z,49.6
2023-11-24T07:37:10.232Z,49.6
2023-11-24T07:38:11.214Z,50.1
2023-11-24T07:39:12.188Z,50.6
2023-11-24T07:40:13.182Z,50.5
2023-11-24T07:41:14.229Z,50.9
2023-11-24T07:42:16.262Z,51.3
2023-11-24T07:43:18.230Z,51.5
2023-11-24T07:44:20.290Z,51.5
2023-11-24T07:45:22.232Z,51.3
2023-11-24T07:46:24.407Z,50.9
2023-11-24T07:47:28.386Z,50.8
2023-11-24T07:48:28.280Z,50.5
2023-11-24T07:49:30.224Z,50.1
2023-11-24T07:50:32.266Z,49.9
2023-11-24T07:51:34.217Z,49.1
2023-11-24T07:52:37.323Z,48.4
2023-11-24T07:53:41.455Z,48.2
2023-11-24T07:54:43.391Z,48
2023-11-24T07:55:45.238Z,47.4
2023-11-24T07:56:47.259Z,46
2023-11-24T07:57:49.235Z,46.6
2023-11-24T07:58:51.257Z,46.8
2023-11-24T07:59:56.218Z,46.3
2023-11-24T08:00:58.266Z,46.1
2023-11-24T08:02:00.341Z,45.7
2023-11-24T08:03:02.190Z,46.5
2023-11-24T08:05:06.292Z,47.8
2023-11-24T08:06:08.488Z,48.4
2023-11-24T08:07:09.221Z,49
2023-11-24T08:08:10.195Z,49.3
2023-11-24T08:09:11.266Z,49.4
2023-11-24T08:10:13.295Z,49.4
2023-11-24T08:11:15.259Z,49.5
2023-11-24T08:12:16.270Z,49.5
2023-11-24T08:13:17.299Z,49.6
2023-11-24T08:14:19.219Z,49.7
2023-11-24T08:15:21.268Z,49.8
2023-11-24T08:16:23.346Z,50
2023-11-24T08:17:25.218Z,49.9
2023-11-24T08:18:27.221Z,49.5
2023-11-24T08:19:30.429Z,49.6
2023-11-24T08:20:32.255Z,49.5
2023-11-24T08:21:34.258Z,49.1
2023-11-24T08:22:36.260Z,49.3
2023-11-24T08:23:38.184Z,49.5
2023-11-24T08:24:40.348Z,49.8
2023-11-24T08:25:42.224Z,50.1
2023-11-24T08:26:44.280Z,50.2
2023-11-24T08:27:46.280Z,50.2
2023-11-24T08:28:48.236Z,50.1
2023-11-24T08:29:53.037Z,50
2023-11-24T08:30:55.255Z,49.5
2023-11-24T08:31:57.266Z,49.9
2023-11-24T08:32:59.295Z,50.1
2023-11-24T08:34:01.268Z,50.1
2023-11-24T08:35:03.288Z,49.6
2023-11-24T08:36:05.249Z,49.7
2023-11-24T08:37:07.261Z,49.3
2023-11-24T08:38:09.234Z,49.4
2023-11-24T08:39:11.241Z,49.1
2023-11-24T08:40:12.469Z,48.8
2023-11-24T08:41:20.830Z,48.6
2023-11-24T08:42:16.275Z,48.5
2023-11-24T08:43:18.377Z,48.2
2023-11-24T08:44:20.248Z,48.4
2023-11-24T08:45:22.240Z,49.2
2023-11-24T08:46:24.411Z,49.9
2023-11-24T08:47:26.328Z,50.8
2023-11-24T08:48:28.256Z,51.3
2023-11-24T08:49:30.456Z,51.3
2023-11-24T08:50:32.221Z,51.3
2023-11-24T08:51:34.245Z,51.4
2023-11-24T08:52:36.205Z,50.3
2023-11-24T08:53:38.237Z,49.4
2023-11-24T08:54:40.239Z,47.8
2023-11-24T08:55:41.235Z,47.5
2023-11-24T08:56:43.588Z,47.9
2023-11-24T08:57:45.488Z,47.4
2023-11-24T08:58:47.270Z,48.4
2023-11-24T08:59:49.301Z,48.3
2023-11-24T09:00:51.273Z,48.4
2023-11-24T09:01:53.453Z,49.2
2023-11-24T09:02:55.419Z,49.6
2023-11-24T09:03:57.339Z,49.1
2023-11-24T09:06:04.282Z,49.3
2023-11-24T09:07:06.294Z,48.5
2023-11-24T09:08:08.246Z,48.7
2023-11-24T09:09:09.233Z,48.9
2023-11-24T09:10:10.415Z,48.2
2023-11-24T09:11:13.812Z,48.3
2023-11-24T09:12:14.248Z,48.4
2023-11-24T09:13:15.321Z,48.5
2023-11-24T09:14:16.267Z,47.7
2023-11-24T09:15:17.253Z,46.8
2023-11-24T09:16:19.482Z,46.8
2023-11-24T09:17:21.312Z,46.9
2023-11-24T09:18:23.564Z,46.8
2023-11-24T09:19:25.523Z,46.7
2023-11-24T09:20:27.563Z,45.3
2023-11-24T09:21:29.251Z,43.7
2023-11-24T09:22:31.281Z,42.5
2023-11-24T09:23:33.264Z,42.2
2023-11-24T09:24:35.307Z,41.9
2023-11-24T09:25:37.309Z,43.1
2023-11-24T09:26:39.253Z,43.4
2023-11-24T09:27:41.457Z,43.1
2023-11-24T09:28:43.299Z,42.7
2023-11-24T09:29:45.264Z,42.2
2023-11-24T09:30:47.285Z,42.8
2023-11-24T09:31:49.243Z,41.9
2023-11-24T09:32:51.341Z,42
2023-11-24T09:33:53.375Z,42.5
2023-11-24T09:34:55.275Z,42.6
2023-11-24T09:35:57.542Z,42.1
2023-11-24T09:36:59.285Z,42.8
2023-11-24T09:38:01.282Z,42.6
2023-11-24T09:39:03.293Z,42
2023-11-24T09:40:05.303Z,42.2
2023-11-24T09:41:07.269Z,41.3
2023-11-24T09:42:09.220Z,41.9
2023-11-24T09:43:10.271Z,41.5
2023-11-24T09:44:11.248Z,41.5
2023-11-24T09:45:12.281Z,41
2023-11-24T09:46:14.403Z,41.4
2023-11-24T09:47:15.250Z,41.7
2023-11-24T09:48:17.337Z,42.5
2023-11-24T09:49:19.283Z,42.7
2023-11-24T09:50:21.289Z,42.5
2023-11-24T09:51:23.306Z,42.6
2023-11-24T09:53:27.280Z,41
2023-11-24T09:54:32.283Z,41.7
2023-11-24T09:55:34.248Z,41.5
2023-11-24T09:56:36.288Z,42
2023-11-24T09:57:38.304Z,41.8
2023-11-24T09:58:40.244Z,41.6
2023-11-24T09:59:42.277Z,41.2
2023-11-24T10:00:44.364Z,40.9
2023-11-24T10:01:46.266Z,41.3
2023-11-24T10:02:48.503Z,41.1
2023-11-24T10:03:50.478Z,40.7
2023-11-24T10:04:52.304Z,40
2023-11-24T10:05:54.312Z,40.3
2023-11-24T10:07:58.261Z,41
2023-11-24T10:09:01.971Z,41.5
2023-11-24T10:10:04.393Z,41.8
2023-11-24T10:11:06.266Z,41.4
2023-11-24T10:12:08.268Z,40.5
2023-11-24T10:13:10.272Z,40
2023-11-24T10:15:12.263Z,40.9
2023-11-24T10:16:13.296Z,40.6
2023-11-24T10:17:15.299Z,40.3
2023-11-24T10:18:17.311Z,40.1
2023-11-24T10:19:20.991Z,40.1
2023-11-24T10:20:21.311Z,40.1
2023-11-24T10:21:27.496Z,40
2023-11-24T10:23:27.307Z,38.2
2023-11-24T10:24:29.246Z,38
2023-11-24T10:25:31.701Z,37.6
2023-11-24T10:26:33.338Z,38.2
2023-11-24T10:27:35.283Z,38.4
2023-11-24T10:28:37.322Z,38.7
2023-11-24T10:30:41.320Z,38.5
2023-11-24T10:31:43.363Z,38.5
2023-11-24T10:32:45.309Z,37.8
2023-11-24T10:33:47.474Z,37.6
2023-11-24T10:34:49.321Z,37.5
2023-11-24T10:35:51.328Z,37.7
2023-11-24T10:37:55.283Z,37.6
2023-11-24T10:38:57.314Z,37.6
2023-11-24T10:39:59.342Z,38
2023-11-24T10:41:04.008Z,38
2023-11-24T10:42:03.314Z,38.2
2023-11-24T10:43:05.328Z,38.1
2023-11-24T10:44:07.267Z,38
2023-11-24T10:45:09.543Z,38.1
2023-11-24T10:46:12.461Z,38
2023-11-24T10:47:12.307Z,38
2023-11-24T10:48:13.394Z,37.6
2023-11-24T10:49:15.570Z,37.5
2023-11-24T10:50:17.323Z,37.3
2023-11-24T10:51:19.369Z,37
2023-11-24T10:53:23.316Z,36.5
2023-11-24T10:54:25.347Z,36.4
2023-11-24T10:55:27.360Z,36.3
2023-11-24T10:56:29.327Z,36.8
2023-11-24T10:57:31.302Z,36.9
2023-11-24T10:58:33.294Z,36.8
2023-11-24T10:59:35.277Z,37.9
2023-11-24T11:00:37.465Z,38.1
2023-11-24T11:01:39.516Z,37.7
2023-11-24T11:02:41.384Z,37.5
2023-11-24T11:03:43.428Z,37.8
2023-11-24T11:04:45.358Z,38
2023-11-24T11:05:47.311Z,37.9
2023-11-24T11:06:49.436Z,37.7
2023-11-24T11:08:54.977Z,38.3
2023-11-24T11:09:57.360Z,38.3
2023-11-24T11:10:59.353Z,38.3
2023-11-24T11:12:01.354Z,37.8
2023-11-24T11:13:04.909Z,38.6
2023-11-24T11:14:07.110Z,38.5
2023-11-24T11:15:08.384Z,38.7
2023-11-24T11:16:10.366Z,38.7
2023-11-24T11:17:14.031Z,39
2023-11-24T11:18:16.157Z,38.8
2023-11-24T11:19:16.327Z,37.8
2023-11-24T11:20:18.333Z,37.2
2023-11-24T11:21:20.318Z,37
2023-11-24T11:22:22.393Z,36.1
2023-11-24T11:23:24.363Z,35.7
2023-11-24T11:24:26.332Z,35.5
2023-11-24T11:25:28.330Z,35.6
2023-11-24T11:26:30.344Z,35.6
2023-11-24T11:27:32.353Z,35.6
2023-11-24T11:28:35.342Z,35.8
2023-11-24T11:29:37.352Z,36
2023-11-24T11:30:42.059Z,36.6
2023-11-24T11:31:44.448Z,36.8
2023-11-24T11:32:48.113Z,36.4
2023-11-24T11:33:51.433Z,36.6
2023-11-24T11:34:53.313Z,37.2
2023-11-24T11:35:55.417Z,38
2023-11-24T11:36:58.390Z,39.6
2023-11-24T11:38:01.395Z,40.9
2023-11-24T11:39:03.314Z,42.4
2023-11-24T11:40:05.427Z,43.9
2023-11-24T11:41:07.478Z,44.7
2023-11-24T11:42:09.446Z,45
2023-11-24T11:43:11.358Z,45.1
2023-11-24T11:44:12.433Z,45.3
2023-11-24T11:45:13.314Z,45.1
2023-11-24T11:46:15.517Z,45.5
2023-11-24T11:47:19.486Z,45.7
2023-11-24T11:48:21.354Z,45.8
2023-11-24T11:49:23.444Z,45.6
2023-11-24T11:50:25.310Z,45
2023-11-24T11:51:27.429Z,45.3
2023-11-24T11:52:29.569Z,45.6
2023-11-24T11:53:31.354Z,45.8
2023-11-24T11:54:33.358Z,45.7
2023-11-24T11:55:35.336Z,45.3
2023-11-24T11:56:37.337Z,44.7
2023-11-24T11:57:39.451Z,44.8
2023-11-24T11:58:41.310Z,44.9
2023-11-24T11:59:43.365Z,45.2
2023-11-24T12:00:45.398Z,45.8
2023-11-24T12:01:47.506Z,46.2
2023-11-24T12:02:49.495Z,45.9
2023-11-24T12:03:52.069Z,45.2
2023-11-24T12:04:54.353Z,45.2
2023-11-24T12:05:56.330Z,44.7
2023-11-24T12:06:58.424Z,44.6
2023-11-24T12:08:00.353Z,44.7
2023-11-24T12:09:02.436Z,44.5
2023-11-24T12:10:04.401Z,44.4
2023-11-24T12:11:06.443Z,44.4
2023-11-24T12:12:08.335Z,44.6
2023-11-24T12:13:10.404Z,44.4
2023-11-24T12:14:11.298Z,45.3
2023-11-24T12:15:12.545Z,45.9
2023-11-24T12:16:13.478Z,46.9
2023-11-24T12:17:15.438Z,47
2023-11-24T12:18:17.433Z,46.7
2023-11-24T12:19:19.343Z,45.4
2023-11-24T12:20:22.380Z,43.8
2023-11-24T12:21:24.454Z,43.6
2023-11-24T12:22:26.352Z,43.6
2023-11-24T12:23:28.388Z,43
2023-11-24T12:24:30.599Z,42.1
2023-11-24T12:25:32.430Z,41.2
2023-11-24T12:26:34.340Z,41.4
2023-11-24T12:27:36.622Z,41.4
2023-11-24T12:28:38.393Z,41
2023-11-24T12:29:40.347Z,41.1
2023-11-24T12:30:42.770Z,41.1
2023-11-24T12:31:44.529Z,40.7
2023-11-24T12:32:46.497Z,39.2
2023-11-24T12:33:48.370Z,39.8
2023-11-24T12:34:50.376Z,39.4
2023-11-24T12:35:52.421Z,38.9
2023-11-24T12:36:54.513Z,39.2
2023-11-24T12:37:56.609Z,39.5
2023-11-24T12:38:58.346Z,39.2
2023-11-24T12:40:00.565Z,39.1
2023-11-24T12:41:02.421Z,38.5
2023-11-24T12:42:04.597Z,39.4
2023-11-24T12:43:06.486Z,40
2023-11-24T12:44:09.776Z,39.5
2023-11-24T12:45:10.583Z,40.5
2023-11-24T12:46:15.287Z,41.1
2023-11-24T12:47:16.499Z,41.1
2023-11-24T12:48:18.420Z,40.8
2023-11-24T12:49:20.501Z,40.8
2023-11-24T12:50:22.411Z,41
2023-11-24T12:51:24.422Z,41.3
2023-11-24T12:52:26.427Z,41.8
2023-11-24T12:53:31.377Z,41.9
2023-11-24T12:54:34.348Z,41.3
2023-11-24T12:55:37.388Z,40.9
2023-11-24T12:56:38.524Z,40.9
2023-11-24T12:57:40.386Z,41.5
2023-11-24T12:58:42.384Z,42.9
2023-11-24T12:59:47.591Z,43.8
2023-11-24T13:00:49.420Z,43.1
2023-11-24T13:01:51.382Z,43
2023-11-24T13:03:55.888Z,44.5
2023-11-24T13:04:57.490Z,45.2
2023-11-24T13:06:00.368Z,46.2
2023-11-24T13:07:03.774Z,45.5
2023-11-24T13:08:04.441Z,46.2
2023-11-24T13:09:06.438Z,46.2
2023-11-24T13:11:10.419Z,46.5
2023-11-24T13:12:16.271Z,46.5
2023-11-24T13:13:13.398Z,46.9
2023-11-24T13:14:14.650Z,46.8
2023-11-24T13:15:16.866Z,46.5
2023-11-24T13:16:18.450Z,46.6
2023-11-24T13:18:25.473Z,46.5
2023-11-24T13:19:27.446Z,46
2023-11-24T13:20:30.144Z,45.4
2023-11-24T13:21:31.356Z,45.3
2023-11-24T13:22:33.459Z,45.4
2023-11-24T13:23:35.430Z,45.8
2023-11-24T13:24:37.430Z,46.2
2023-11-24T13:25:39.440Z,46.8
2023-11-24T13:26:42.448Z,47.4
2023-11-24T13:27:47.488Z,47.3
2023-11-24T13:28:49.499Z,48.1
2023-11-24T13:29:51.473Z,48.3
2023-11-24T13:30:53.529Z,47.9
2023-11-24T13:32:56.643Z,47.1
2023-11-24T13:33:58.467Z,47.1
2023-11-24T13:35:00.457Z,47.1
2023-11-24T13:36:02.402Z,46.9
2023-11-24T13:37:04.470Z,46.6
2023-11-24T13:38:06.406Z,46.2
2023-11-24T13:39:08.424Z,45.8
2023-11-24T13:40:10.771Z,46.4
2023-11-24T13:41:15.169Z,46.4
2023-11-24T13:42:16.518Z,47.6
2023-11-24T13:43:18.443Z,48.2
2023-11-24T13:44:20.389Z,48.3
2023-11-24T13:45:21.416Z,48.3
2023-11-24T13:46:23.475Z,47.4
2023-11-24T13:48:27.393Z,46.4
2023-11-24T13:49:29.397Z,46.7
2023-11-24T13:50:31.453Z,46.8
2023-11-24T13:51:33.409Z,47
2023-11-24T13:52:35.497Z,46.7
2023-11-24T13:53:37.507Z,46.9
2023-11-24T13:55:41.399Z,46.4
2023-11-24T13:56:43.477Z,46.5
2023-11-24T13:57:45.824Z,47.3
2023-11-24T13:58:45.430Z,47.9
2023-11-24T13:59:46.414Z,48.4
2023-11-24T14:00:47.385Z,47.3
2023-11-24T14:01:48.636Z,47.2
2023-11-24T14:02:49.503Z,47.5
2023-11-24T14:03:50.622Z,47.4
2023-11-24T14:04:51.417Z,47.4
2023-11-24T14:05:52.413Z,47.5
2023-11-24T14:06:53.506Z,46.9
2023-11-24T14:07:54.379Z,46.2
2023-11-24T14:08:55.406Z,46
2023-11-24T14:09:56.393Z,46.2
2023-11-24T14:10:57.369Z,45.7
2023-11-24T14:11:58.389Z,45.5
2023-11-24T14:13:00.447Z,45.1
2023-11-24T14:14:03.489Z,44.4
2023-11-24T14:15:04.702Z,44.2
2023-11-24T14:16:07.819Z,44
2023-11-24T14:17:09.499Z,43.8
2023-11-24T14:18:10.451Z,43.6
2023-11-24T14:19:12.472Z,43.7
2023-11-24T14:20:15.679Z,43.7
2023-11-24T14:21:18.788Z,44.4
2023-11-24T14:22:20.888Z,45
2023-11-24T14:23:21.399Z,45.2
2023-11-24T14:24:23.713Z,45.3